createdAt,value
2022-08-17T00:01:51.294Z,26.77
2022-08-17T00:04:20.655Z,26.77
2022-08-17T00:06:49.473Z,26.76
2022-08-17T00:09:19.445Z,26.77
2022-08-17T00:12:34.883Z,26.76
2022-08-17T00:14:37.667Z,26.77
2022-08-17T00:17:06.686Z,26.76
2022-08-17T00:19:34.451Z,26.78
2022-08-17T00:22:32.942Z,26.77
2022-08-17T00:24:52.322Z,26.78
2022-08-17T00:27:20.348Z,26.76
2022-08-17T00:29:48.187Z,26.76
2022-08-17T00:33:13.691Z,26.75
2022-08-17T00:35:06.431Z,26.75
2022-08-17T00:37:34.553Z,26.75
2022-08-17T00:40:04.157Z,26.73
2022-08-17T00:42:32.174Z,26.73
2022-08-17T00:45:00.637Z,26.72
2022-08-17T00:47:28.371Z,26.71
2022-08-17T00:49:56.547Z,26.69
2022-08-17T00:52:28.717Z,26.68
2022-08-17T00:54:57.232Z,26.64
2022-08-17T00:57:30.709Z,26.65
2022-08-17T01:00:03.787Z,26.63
2022-08-17T01:02:43.078Z,26.62
2022-08-17T01:05:15.767Z,26.60
2022-08-17T01:07:44.561Z,26.56
2022-08-17T01:10:58.194Z,26.55
2022-08-17T01:13:04.287Z,26.56
2022-08-17T01:15:34.825Z,26.54
2022-08-17T01:18:03.037Z,26.53
2022-08-17T01:20:30.857Z,26.51
2022-08-17T01:23:12.817Z,26.52
2022-08-17T01:25:50.817Z,26.50
2022-08-17T01:28:33.424Z,26.50
2022-08-17T01:31:09.224Z,26.51
2022-08-17T01:33:37.920Z,26.49
2022-08-17T01:36:07.353Z,26.47
2022-08-17T01:38:38.563Z,26.47
2022-08-17T01:41:09.450Z,26.44
2022-08-17T01:43:43.190Z,26.42
2022-08-17T01:46:15.622Z,26.40
2022-08-17T01:48:47.694Z,26.38
2022-08-17T01:51:16.580Z,26.37
2022-08-17T01:53:49.567Z,26.37
2022-08-17T01:56:20.807Z,26.33
2022-08-17T01:58:49.207Z,26.31
2022-08-17T02:01:18.794Z,26.30
2022-08-17T02:03:59.143Z,26.28
2022-08-17T02:06:31.654Z,26.27
2022-08-17T02:09:25.512Z,26.26
2022-08-17T02:11:54.640Z,26.24
2022-08-17T02:14:23.129Z,26.21
2022-08-17T02:16:51.155Z,26.18
2022-08-17T02:19:19.835Z,26.16
2022-08-17T02:21:49.921Z,26.13
2022-08-17T02:25:00.952Z,26.12
2022-08-17T02:27:11.977Z,26.11
2022-08-17T02:29:39.993Z,26.10
2022-08-17T02:32:27.477Z,26.08
2022-08-17T02:34:57.509Z,26.07
2022-08-17T02:37:25.601Z,26.04
2022-08-17T02:39:56.819Z,26.01
2022-08-17T02:42:28.903Z,26.01
2022-08-17T02:44:56.901Z,25.98
2022-08-17T02:47:25.170Z,25.97
2022-08-17T02:49:55.536Z,25.97
2022-08-17T02:53:01.965Z,25.98
2022-08-17T02:55:16.831Z,26.00
2022-08-17T02:57:45.991Z,26.00
2022-08-17T03:00:18.045Z,26.02
2022-08-17T03:02:46.902Z,26.04
2022-08-17T03:05:18.277Z,26.02
2022-08-17T03:07:46.541Z,26.02
2022-08-17T03:10:16.506Z,26.02
2022-08-17T03:12:45.731Z,26.03
2022-08-17T03:15:16.199Z,26.03
2022-08-17T03:17:44.035Z,26.02
2022-08-17T03:20:13.767Z,26.03
2022-08-17T03:22:47.940Z,26.04
2022-08-17T03:25:30.129Z,26.03
2022-08-17T03:27:58.239Z,26.01
2022-08-17T03:30:27.200Z,26.00
2022-08-17T03:32:57.547Z,25.99
2022-08-17T03:35:28.013Z,25.99
2022-08-17T03:38:00.238Z,25.94
2022-08-17T03:40:58.107Z,26.00
2022-08-17T03:43:19.496Z,26.01
2022-08-17T03:46:04.994Z,26.02
2022-08-17T03:48:51.274Z,26.01
2022-08-17T03:51:41.311Z,26.01
2022-08-17T03:54:28.726Z,26.03
2022-08-17T03:57:06.886Z,26.04
2022-08-17T03:59:36.260Z,26.01
2022-08-17T04:02:09.328Z,26.02
2022-08-17T04:04:37.403Z,26.00
2022-08-17T04:07:05.719Z,25.99
2022-08-17T04:09:34.014Z,26.00
2022-08-17T04:12:04.759Z,26.00
2022-08-17T04:14:39.365Z,25.99
2022-08-17T04:17:21.178Z,26.01
2022-08-17T04:19:49.269Z,26.01
2022-08-17T04:22:31.938Z,26.02
2022-08-17T04:25:05.588Z,26.04
2022-08-17T04:27:34.759Z,26.04
2022-08-17T04:30:02.761Z,26.06
2022-08-17T04:33:02.297Z,26.07
2022-08-17T04:35:21.172Z,26.07
2022-08-17T04:37:49.258Z,26.07
2022-08-17T04:40:35.003Z,26.07
2022-08-17T04:43:06.119Z,26.11
2022-08-17T04:45:34.128Z,26.09
2022-08-17T04:48:02.367Z,26.08
2022-08-17T04:50:30.132Z,26.06
2022-08-17T04:52:58.117Z,26.02
2022-08-17T04:55:26.222Z,26.01
2022-08-17T04:57:54.273Z,25.97
2022-08-17T05:00:25.743Z,25.96
2022-08-17T05:02:55.926Z,25.95
2022-08-17T05:05:26.271Z,25.95
2022-08-17T05:07:54.659Z,25.95
2022-08-17T05:10:22.859Z,25.94
2022-08-17T05:12:59.204Z,25.97
2022-08-17T05:15:29.764Z,25.94
2022-08-17T05:18:01.300Z,25.92
2022-08-17T05:20:29.998Z,25.90
2022-08-17T05:22:59.270Z,25.89
2022-08-17T05:25:32.752Z,25.88
2022-08-17T05:28:02.416Z,25.86
2022-08-17T05:30:31.859Z,25.85
2022-08-17T05:33:02.061Z,25.82
2022-08-17T05:35:33.534Z,25.80
2022-08-17T05:38:01.657Z,25.78
2022-08-17T05:40:32.870Z,25.75
2022-08-17T05:43:09.371Z,25.75
2022-08-17T05:45:55.873Z,25.72
2022-08-17T05:48:35.727Z,25.70
2022-08-17T05:51:17.092Z,25.69
2022-08-17T05:53:51.895Z,25.69
2022-08-17T05:56:29.475Z,25.69
2022-08-17T05:59:04.547Z,25.67
2022-08-17T06:01:42.164Z,25.68
2022-08-17T06:04:20.705Z,25.67
2022-08-17T06:06:55.143Z,25.66
2022-08-17T06:09:35.998Z,25.66
2022-08-17T06:12:21.990Z,25.64
2022-08-17T06:15:10.907Z,25.62
2022-08-17T06:17:41.091Z,25.58
2022-08-17T06:20:11.774Z,25.54
2022-08-17T06:22:47.057Z,25.52
2022-08-17T06:25:16.643Z,25.51
2022-08-17T06:27:53.602Z,25.48
2022-08-17T06:30:25.085Z,25.44
2022-08-17T06:32:59.490Z,25.43
2022-08-17T06:35:35.803Z,25.42
2022-08-17T06:38:36.904Z,25.41
2022-08-17T06:41:05.718Z,25.45
2022-08-17T06:43:56.225Z,25.47
2022-08-17T06:46:30.175Z,25.43
2022-08-17T06:49:12.259Z,25.44
2022-08-17T06:51:43.705Z,25.41
2022-08-17T06:54:20.663Z,25.41
2022-08-17T06:56:55.204Z,25.39
2022-08-17T06:59:54.176Z,25.40
2022-08-17T07:02:29.421Z,25.41
2022-08-17T07:05:14.178Z,25.40
2022-08-17T07:08:03.856Z,25.40
2022-08-17T07:10:39.119Z,25.38
2022-08-17T07:13:21.399Z,25.36
2022-08-17T07:15:56.811Z,25.35
2022-08-17T07:18:27.975Z,25.32
2022-08-17T07:21:04.745Z,25.33
2022-08-17T07:23:40.762Z,25.30
2022-08-17T07:26:10.117Z,25.27
2022-08-17T07:28:38.139Z,25.26
2022-08-17T07:31:06.998Z,25.24
2022-08-17T07:33:36.743Z,25.25
2022-08-17T07:36:06.350Z,25.25
2022-08-17T07:38:36.465Z,25.24
2022-08-17T07:41:07.653Z,25.23
2022-08-17T07:43:37.940Z,25.23
2022-08-17T07:46:32.644Z,25.24
2022-08-17T07:49:19.248Z,25.23
2022-08-17T07:52:24.155Z,25.23
2022-08-17T07:54:51.908Z,25.17
2022-08-17T07:57:40.810Z,25.17
2022-08-17T08:00:26.699Z,25.17
2022-08-17T08:03:26.215Z,25.17
2022-08-17T08:05:57.366Z,25.16
2022-08-17T08:08:33.753Z,25.18
2022-08-17T08:11:09.167Z,25.18
2022-08-17T08:13:42.414Z,25.18
2022-08-17T08:16:23.851Z,25.21
2022-08-17T08:18:56.804Z,25.16
2022-08-17T08:21:34.414Z,25.11
2022-08-17T08:24:17.437Z,25.11
2022-08-17T08:26:55.471Z,25.04
2022-08-17T08:29:32.667Z,25.02
2022-08-17T08:32:10.574Z,25.00
2022-08-17T08:35:01.525Z,24.96
2022-08-17T08:37:43.259Z,24.95
2022-08-17T08:40:33.813Z,24.94
2022-08-17T08:43:14.984Z,24.94
2022-08-17T08:45:51.629Z,24.93
2022-08-17T08:48:55.966Z,24.92
2022-08-17T08:51:37.309Z,24.94
2022-08-17T08:54:13.503Z,24.86
2022-08-17T08:57:19.487Z,24.80
2022-08-17T08:59:58.064Z,24.80
2022-08-17T09:02:47.424Z,24.82
2022-08-17T09:05:29.440Z,24.82
2022-08-17T09:08:06.124Z,24.79
2022-08-17T09:10:47.095Z,24.78
2022-08-17T09:13:23.348Z,24.80
2022-08-17T09:15:57.282Z,24.75
2022-08-17T09:19:03.171Z,24.83
2022-08-17T09:21:22.601Z,24.91
2022-08-17T09:23:59.930Z,24.94
2022-08-17T09:26:32.347Z,24.97
2022-08-17T09:29:07.035Z,24.98
2022-08-17T09:31:48.815Z,24.96
2022-08-17T09:34:21.205Z,25.04
2022-08-17T09:36:57.173Z,25.09
2022-08-17T09:39:33.789Z,25.13
2022-08-17T09:42:07.740Z,25.18
2022-08-17T09:44:41.945Z,25.25
2022-08-17T09:47:17.194Z,25.32
2022-08-17T09:49:49.970Z,25.40
2022-08-17T09:52:22.347Z,25.46
2022-08-17T09:54:52.479Z,25.52
2022-08-17T09:57:32.136Z,25.61
2022-08-17T10:00:16.606Z,25.69
2022-08-17T10:03:08.354Z,25.77
2022-08-17T10:05:46.488Z,25.87
2022-08-17T10:08:25.560Z,25.94
2022-08-17T10:11:00.745Z,25.92
2022-08-17T10:13:37.045Z,25.79
2022-08-17T10:16:14.017Z,25.93
2022-08-17T10:18:51.738Z,25.98
2022-08-17T10:21:38.531Z,26.00
2022-08-17T10:24:31.099Z,26.07
2022-08-17T10:27:02.601Z,26.11
2022-08-17T10:29:48.974Z,26.16
2022-08-17T10:32:28.738Z,26.18
2022-08-17T10:35:25.937Z,26.21
2022-08-17T10:38:37.733Z,26.23
2022-08-17T10:41:17.969Z,26.26
2022-08-17T10:43:58.904Z,26.25
2022-08-17T10:47:04.085Z,26.27
2022-08-17T10:49:36.018Z,26.30
2022-08-17T10:52:26.961Z,26.31
2022-08-17T10:55:13.863Z,26.32
2022-08-17T10:57:44.761Z,26.33
2022-08-17T11:01:12.628Z,26.36
2022-08-17T11:03:54.721Z,26.40
2022-08-17T11:06:34.498Z,26.44
2022-08-17T11:09:25.457Z,26.48
2022-08-17T11:12:08.213Z,26.52
2022-08-17T11:14:54.286Z,26.57
2022-08-17T11:17:50.032Z,26.58
2022-08-17T11:20:56.597Z,26.68
2022-08-17T11:23:53.901Z,26.75
2022-08-17T11:26:26.915Z,26.82
2022-08-17T11:29:00.051Z,26.86
2022-08-17T11:31:38.990Z,26.90
2022-08-17T11:34:15.189Z,26.91
2022-08-17T11:37:11.038Z,26.94
2022-08-17T11:39:53.382Z,26.96
2022-08-17T11:42:38.655Z,26.98
2022-08-17T11:45:31.665Z,26.99
2022-08-17T11:48:29.196Z,27.06
2022-08-17T11:51:24.560Z,27.13
2022-08-17T11:54:31.294Z,27.21
2022-08-17T11:56:55.249Z,27.27
2022-08-17T11:59:55.241Z,27.32
2022-08-17T12:02:38.859Z,27.40
2022-08-17T12:05:42.064Z,27.44
2022-08-17T12:08:18.570Z,27.49
2022-08-17T12:11:09.765Z,27.51
2022-08-17T12:13:45.773Z,27.54
2022-08-17T12:16:16.392Z,27.57
2022-08-17T12:18:51.571Z,27.61
2022-08-17T12:21:25.893Z,27.65
2022-08-17T12:23:58.524Z,27.70
2022-08-17T12:26:36.582Z,27.73
2022-08-17T12:29:38.676Z,27.78
2022-08-17T12:40:03.213Z,27.85
2022-08-17T12:42:37.244Z,27.88
2022-08-17T12:45:07.575Z,27.90
2022-08-17T12:47:37.839Z,27.93
2022-08-17T12:50:28.458Z,27.94
2022-08-17T12:53:01.898Z,27.95
2022-08-17T12:55:36.812Z,27.99
2022-08-17T12:58:13.991Z,28.00
2022-08-17T13:00:50.117Z,28.04
2022-08-17T13:03:21.148Z,28.04
2022-08-17T13:05:58.071Z,28.07
2022-08-17T13:08:29.765Z,28.08
2022-08-17T13:10:59.035Z,28.09
2022-08-17T13:13:28.501Z,28.09
2022-08-17T13:16:00.002Z,28.12
2022-08-17T13:18:41.885Z,28.14
2022-08-17T13:21:18.741Z,28.14
2022-08-17T13:23:57.031Z,28.17
2022-08-17T13:26:30.821Z,28.19
2022-08-17T13:29:00.394Z,28.19
2022-08-17T13:31:42.896Z,28.20
2022-08-17T13:34:38.705Z,28.23
2022-08-17T13:37:34.473Z,28.24
2022-08-17T13:40:25.744Z,28.22
2022-08-17T13:42:56.419Z,28.21
2022-08-17T13:45:50.712Z,28.20
2022-08-17T13:48:30.458Z,28.20
2022-08-17T13:51:18.051Z,28.19
2022-08-17T13:53:54.791Z,28.19
2022-08-17T13:56:37.877Z,28.17
2022-08-17T13:59:10.174Z,28.17
2022-08-17T14:01:40.811Z,28.17
2022-08-17T14:04:12.470Z,28.18
2022-08-17T14:06:53.197Z,28.15
2022-08-17T14:09:25.365Z,28.14
2022-08-17T14:11:55.048Z,28.13
2022-08-17T14:14:23.629Z,28.13
2022-08-17T14:16:51.835Z,28.03
2022-08-17T14:19:25.230Z,28.03
2022-08-17T14:21:56.484Z,28.03
2022-08-17T14:24:27.504Z,28.00
2022-08-17T14:26:55.932Z,28.02
2022-08-17T14:29:28.266Z,28.04
2022-08-17T14:31:57.314Z,28.02
2022-08-17T14:34:26.799Z,28.04
2022-08-17T14:36:54.660Z,28.03
2022-08-17T14:39:22.538Z,28.03
2022-08-17T14:41:50.587Z,28.05
2022-08-17T14:44:20.358Z,28.02
2022-08-17T14:46:52.314Z,27.99
2022-08-17T14:49:25.708Z,28.00
2022-08-17T14:51:58.801Z,28.00
2022-08-17T14:54:33.105Z,28.00
2022-08-17T14:57:22.184Z,27.98
2022-08-17T14:59:57.028Z,28.03
2022-08-17T15:02:29.471Z,28.05
2022-08-17T15:05:02.079Z,28.08
2022-08-17T15:07:32.517Z,28.11
2022-08-17T15:10:02.477Z,28.09
2022-08-17T15:12:34.306Z,28.17
2022-08-17T15:15:04.801Z,28.18
2022-08-17T15:17:44.519Z,28.21
2022-08-17T15:20:17.256Z,28.22
2022-08-17T15:22:51.662Z,28.28
2022-08-17T15:25:22.431Z,28.29
2022-08-17T15:27:55.655Z,28.32
2022-08-17T15:30:30.139Z,28.33
2022-08-17T15:32:59.143Z,28.34
2022-08-17T15:35:34.292Z,28.36
2022-08-17T15:38:12.018Z,28.36
2022-08-17T15:40:44.541Z,28.36
2022-08-17T15:43:16.073Z,28.36
2022-08-17T15:45:44.182Z,28.35
2022-08-17T15:48:16.497Z,28.29
2022-08-17T15:50:49.398Z,28.30
2022-08-17T15:53:23.289Z,28.30
2022-08-17T15:55:54.610Z,28.22
2022-08-17T15:58:30.070Z,28.27
2022-08-17T16:01:16.535Z,28.29
2022-08-17T16:04:04.302Z,28.31
2022-08-17T16:06:35.561Z,28.28
2022-08-17T16:09:05.145Z,28.32
2022-08-17T16:11:33.237Z,28.31
2022-08-17T16:14:01.316Z,28.31
2022-08-17T16:16:31.457Z,28.30
2022-08-17T16:18:59.441Z,28.30
2022-08-17T16:21:29.460Z,28.23
2022-08-17T16:24:02.391Z,28.13
2022-08-17T16:26:33.579Z,28.05
2022-08-17T16:29:04.931Z,27.98
2022-08-17T16:31:33.047Z,27.85
2022-08-17T16:34:17.240Z,27.65
2022-08-17T16:36:55.728Z,27.63
2022-08-17T16:39:26.602Z,27.62
2022-08-17T16:41:58.279Z,27.58
2022-08-17T16:44:32.600Z,27.54
2022-08-17T16:47:02.433Z,27.52
2022-08-17T16:49:35.466Z,27.49
2022-08-17T16:52:05.601Z,27.47
2022-08-17T16:54:33.464Z,27.46
2022-08-17T16:57:05.382Z,27.47
2022-08-17T16:59:40.781Z,27.47
2022-08-17T17:02:19.856Z,27.48
2022-08-17T17:04:53.508Z,27.50
2022-08-17T17:07:45.607Z,27.50
2022-08-17T17:10:16.842Z,27.51
2022-08-17T17:13:02.071Z,27.46
2022-08-17T17:15:42.861Z,27.43
2022-08-17T17:18:14.870Z,27.39
2022-08-17T17:20:48.931Z,27.35
2022-08-17T17:23:29.249Z,27.35
2022-08-17T17:26:04.560Z,27.34
2022-08-17T17:28:40.689Z,27.36
2022-08-17T17:31:12.985Z,27.42
2022-08-17T17:33:48.011Z,27.35
2022-08-17T17:36:25.217Z,27.36
2022-08-17T17:38:55.916Z,27.30
2022-08-17T17:41:30.220Z,27.29
2022-08-17T17:44:03.722Z,27.24
2022-08-17T17:46:37.834Z,27.13
2022-08-17T17:49:07.091Z,27.09
2022-08-17T17:52:09.361Z,27.08
2022-08-17T17:54:44.325Z,27.04
2022-08-17T17:57:22.265Z,27.02
2022-08-17T17:59:59.613Z,26.98
2022-08-17T18:02:52.232Z,26.99
2022-08-17T18:05:38.836Z,26.90
2022-08-17T18:08:32.118Z,26.91
2022-08-17T18:11:13.492Z,26.90
2022-08-17T18:13:56.806Z,26.85
2022-08-17T18:16:32.085Z,26.81
2022-08-17T18:19:00.992Z,26.82
2022-08-17T18:21:36.180Z,26.82
2022-08-17T18:24:04.897Z,26.81
2022-08-17T18:26:55.533Z,26.81
2022-08-17T18:29:45.271Z,26.79
2022-08-17T18:32:36.675Z,26.72
2022-08-17T18:35:30.771Z,26.74
2022-08-17T18:38:20.550Z,26.71
2022-08-17T18:40:59.394Z,26.71
2022-08-17T18:43:36.466Z,26.68
2022-08-17T18:46:28.569Z,26.68
2022-08-17T18:49:01.548Z,26.69
2022-08-17T18:51:40.525Z,26.68
2022-08-17T18:54:16.667Z,26.59
2022-08-17T18:56:45.246Z,26.58
2022-08-17T18:59:36.944Z,26.53
2022-08-17T19:02:32.454Z,26.39
2022-08-17T19:05:13.260Z,26.30
2022-08-17T19:07:42.751Z,26.25
2022-08-17T19:10:25.137Z,26.20
2022-08-17T19:13:00.881Z,26.18
2022-08-17T19:15:42.701Z,26.11
2022-08-17T19:18:16.003Z,26.13
2022-08-17T19:20:51.727Z,26.14
2022-08-17T19:23:25.365Z,26.08
2022-08-17T19:25:58.614Z,26.07
2022-08-17T19:28:30.558Z,26.09
2022-08-17T19:31:02.805Z,26.05
2022-08-17T19:33:32.513Z,26.07
2022-08-17T19:36:08.511Z,26.09
2022-08-17T19:38:45.735Z,26.10
2022-08-17T19:41:21.819Z,26.09
2022-08-17T19:44:06.993Z,26.09
2022-08-17T19:46:49.832Z,26.08
2022-08-17T19:49:34.498Z,26.06
2022-08-17T19:52:28.935Z,26.05
2022-08-17T19:55:01.564Z,26.01
2022-08-17T19:57:42.769Z,25.99
2022-08-17T20:00:14.759Z,25.94
2022-08-17T20:02:50.587Z,25.93
2022-08-17T20:05:24.854Z,25.89
2022-08-17T20:08:02.147Z,25.89
2022-08-17T20:10:38.515Z,25.86
2022-08-17T20:13:10.996Z,25.84
2022-08-17T20:15:42.197Z,25.79
2022-08-17T20:18:18.524Z,25.78
2022-08-17T20:20:56.481Z,25.75
2022-08-17T20:23:50.463Z,25.72
2022-08-17T20:26:23.242Z,25.69
2022-08-17T20:29:11.347Z,25.67
2022-08-17T20:31:45.895Z,25.65
2022-08-17T20:34:36.803Z,25.61
2022-08-17T20:37:08.841Z,25.57
2022-08-17T20:39:42.627Z,25.55
2022-08-17T20:42:29.248Z,25.49
2022-08-17T20:44:59.201Z,25.46
2022-08-17T20:47:30.010Z,25.43
2022-08-17T20:50:03.263Z,25.41
2022-08-17T20:52:50.749Z,25.38
2022-08-17T20:55:56.088Z,25.36
2022-08-17T20:58:47.539Z,25.33
2022-08-17T21:01:24.388Z,25.28
2022-08-17T21:03:54.129Z,25.24
2022-08-17T21:06:25.480Z,25.22
2022-08-17T21:08:58.599Z,25.19
2022-08-17T21:12:03.034Z,25.17
2022-08-17T21:14:56.115Z,25.16
2022-08-17T21:17:42.107Z,25.08
2022-08-17T21:20:25.250Z,25.10
2022-08-17T21:23:21.053Z,25.09
2022-08-17T21:26:02.491Z,25.07
2022-08-17T21:29:01.344Z,25.04
2022-08-17T21:31:34.877Z,25.01
2022-08-17T21:34:31.775Z,24.97
2022-08-17T21:37:30.419Z,24.94
2022-08-17T21:40:01.087Z,24.91
2022-08-17T21:42:32.076Z,24.88
2022-08-17T21:45:10.800Z,24.82
2022-08-17T21:47:47.489Z,24.83
2022-08-17T21:50:19.659Z,24.80
2022-08-17T21:52:49.566Z,24.76
2022-08-17T21:55:23.381Z,24.76
2022-08-17T21:57:55.419Z,24.72
2022-08-17T22:00:40.794Z,24.68
2022-08-17T22:03:23.934Z,24.66
2022-08-17T22:05:51.984Z,24.62
2022-08-17T22:08:22.339Z,24.59
2022-08-17T22:10:51.529Z,24.55
2022-08-17T22:13:24.359Z,24.50
2022-08-17T22:16:15.496Z,24.48
2022-08-17T22:18:58.078Z,24.45
2022-08-17T22:21:26.485Z,24.44
2022-08-17T22:24:06.380Z,24.42
2022-08-17T22:27:01.168Z,24.38
2022-08-17T22:30:02.248Z,24.36
2022-08-17T22:32:38.794Z,24.35
2022-08-17T22:35:32.838Z,24.32
2022-08-17T22:38:32.049Z,24.27
2022-08-17T22:41:26.188Z,24.27
2022-08-17T22:43:57.432Z,24.22
2022-08-17T22:46:26.926Z,24.19
2022-08-17T22:48:59.280Z,24.18
2022-08-17T22:51:30.787Z,24.16
2022-08-17T22:54:19.170Z,24.14
2022-08-17T22:57:15.269Z,24.14
2022-08-17T22:59:50.160Z,24.09
2022-08-17T23:02:27.139Z,24.08
2022-08-17T23:05:18.870Z,24.03
2022-08-17T23:07:48.090Z,23.98
2022-08-17T23:10:16.395Z,23.96
2022-08-17T23:12:44.149Z,23.93
2022-08-17T23:15:17.442Z,23.92
2022-08-17T23:17:45.527Z,23.89
2022-08-17T23:20:17.767Z,23.88
2022-08-17T23:22:52.194Z,23.86
2022-08-17T23:25:27.231Z,23.86
2022-08-17T23:27:55.470Z,23.82
2022-08-17T23:30:25.378Z,23.81
2022-08-17T23:32:54.375Z,23.78
2022-08-17T23:35:40.489Z,23.76
2022-08-17T23:38:09.823Z,23.75
2022-08-17T23:40:39.375Z,23.72
2022-08-17T23:43:24.723Z,23.71
2022-08-17T23:45:57.430Z,23.69
2022-08-17T23:48:28.466Z,23.66
2022-08-17T23:51:09.611Z,23.65
2022-08-17T23:53:42.135Z,23.63
2022-08-17T23:56:11.262Z,23.59
2022-08-17T23:58:40.290Z,23.54
